createdAt,value
2022-12-13T00:01:59.557Z,95.17
2022-12-13T00:04:27.693Z,95.17
2022-12-13T00:06:55.810Z,95.02
2022-12-13T00:09:24.342Z,94.88
2022-12-13T00:11:53.704Z,94.89
2022-12-13T00:14:21.878Z,94.62
2022-12-13T00:16:50.865Z,94.58
2022-12-13T00:19:19.505Z,94.82
2022-12-13T00:21:47.659Z,94.31
2022-12-13T00:24:16.262Z,94.40
2022-12-13T00:26:44.533Z,94.40
2022-12-13T00:29:13.213Z,94.44
2022-12-13T00:32:00.688Z,94.08
2022-12-13T00:34:29.679Z,94.17
2022-12-13T00:37:00.774Z,94.30
2022-12-13T00:39:29.655Z,94.01
2022-12-13T00:41:58.188Z,94.05
2022-12-13T00:44:26.952Z,94.15
2022-12-13T00:46:55.113Z,94.15
2022-12-13T00:49:24.060Z,94.01
2022-12-13T00:51:52.416Z,94.35
2022-12-13T00:54:22.943Z,93.99
2022-12-13T00:56:51.762Z,94.01
2022-12-13T00:59:19.940Z,93.84
2022-12-13T01:01:48.188Z,93.70
2022-12-13T01:04:16.362Z,93.99
2022-12-13T01:06:46.966Z,93.79
2022-12-13T01:09:21.314Z,94.09
2022-12-13T01:11:50.440Z,93.84
2022-12-13T01:14:19.208Z,93.96
2022-12-13T01:16:47.372Z,94.00
2022-12-13T01:19:16.497Z,93.99
2022-12-13T01:21:44.610Z,94.22
2022-12-13T01:24:14.101Z,94.37
2022-12-13T01:26:42.175Z,94.28
2022-12-13T01:29:11.637Z,94.34
2022-12-13T01:31:42.106Z,94.09
2022-12-13T01:34:15.818Z,94.10
2022-12-13T01:36:46.045Z,94.00
2022-12-13T01:39:17.221Z,94.51
2022-12-13T01:41:51.842Z,94.53
2022-12-13T01:44:57.904Z,94.50
2022-12-13T01:47:38.629Z,94.30
2022-12-13T01:50:29.569Z,94.41
2022-12-13T01:53:00.219Z,94.41
2022-12-13T01:55:33.553Z,94.66
2022-12-13T01:58:11.259Z,94.68
2022-12-13T02:00:41.103Z,94.77
2022-12-13T02:03:20.834Z,94.73
2022-12-13T02:06:10.933Z,95.12
2022-12-13T02:08:43.169Z,95.30
2022-12-13T02:11:12.040Z,94.95
2022-12-13T02:13:40.117Z,95.05
2022-12-13T02:16:30.366Z,95.43
2022-12-13T02:19:13.662Z,95.75
2022-12-13T02:22:06.827Z,95.77
2022-12-13T02:25:12.486Z,95.64
2022-12-13T02:28:00.771Z,95.47
2022-12-13T02:30:39.949Z,95.66
2022-12-13T02:33:21.735Z,95.51
2022-12-13T02:36:19.018Z,95.64
2022-12-13T02:39:13.048Z,95.35
2022-12-13T02:41:51.113Z,95.69
2022-12-13T02:44:41.929Z,95.54
2022-12-13T02:47:22.057Z,95.62
2022-12-13T02:49:56.041Z,95.20
2022-12-13T02:52:28.094Z,95.67
2022-12-13T02:54:57.656Z,95.72
2022-12-13T02:57:37.878Z,95.25
2022-12-13T03:00:09.622Z,95.28
2022-12-13T03:03:11.060Z,95.12
2022-12-13T03:06:13.341Z,95.02
2022-12-13T03:08:55.266Z,95.06
2022-12-13T03:11:49.383Z,94.74
2022-12-13T03:14:22.758Z,94.96
2022-12-13T03:16:54.905Z,94.63
2022-12-13T03:19:23.704Z,94.44
2022-12-13T03:21:51.787Z,94.49
2022-12-13T03:24:21.664Z,94.72
2022-12-13T03:26:51.280Z,94.64
2022-12-13T03:29:24.037Z,94.12
2022-12-13T03:31:54.181Z,94.76
2022-12-13T03:34:23.674Z,94.43
2022-12-13T03:36:53.452Z,94.45
2022-12-13T03:39:22.894Z,94.39
2022-12-13T03:41:51.657Z,94.36
2022-12-13T03:44:19.745Z,94.10
2022-12-13T03:46:47.786Z,94.31
2022-12-13T03:49:17.500Z,94.14
2022-12-13T03:51:46.037Z,94.33
2022-12-13T03:54:14.258Z,94.22
2022-12-13T03:56:42.367Z,94.03
2022-12-13T03:59:10.474Z,94.44
2022-12-13T04:01:38.556Z,94.30
2022-12-13T04:04:06.686Z,93.97
2022-12-13T04:06:34.750Z,94.26
2022-12-13T04:09:03.414Z,94.04
2022-12-13T04:11:50.182Z,94.04
2022-12-13T04:14:21.822Z,94.05
2022-12-13T04:16:52.542Z,93.81
2022-12-13T04:19:23.334Z,94.09
2022-12-13T04:21:54.559Z,93.74
2022-12-13T04:24:31.381Z,93.88
2022-12-13T04:27:02.075Z,93.99
2022-12-13T04:29:33.845Z,93.79
2022-12-13T04:32:26.812Z,94.04
2022-12-13T04:35:00.764Z,93.74
2022-12-13T04:37:43.523Z,93.22
2022-12-13T04:40:12.388Z,93.34
2022-12-13T04:42:40.588Z,92.87
2022-12-13T04:45:15.386Z,93.10
2022-12-13T04:47:44.632Z,93.07
2022-12-13T04:50:13.155Z,92.83
2022-12-13T04:52:41.220Z,93.08
2022-12-13T04:55:09.765Z,92.67
2022-12-13T04:57:38.874Z,92.96
2022-12-13T05:00:10.008Z,92.88
2022-12-13T05:02:38.804Z,92.34
2022-12-13T05:05:08.600Z,92.72
2022-12-13T05:07:42.199Z,92.74
2022-12-13T05:10:12.142Z,92.30
2022-12-13T05:12:40.966Z,92.66
2022-12-13T05:15:09.535Z,92.31
2022-12-13T05:17:37.735Z,92.36
2022-12-13T05:20:06.284Z,92.27
2022-12-13T05:22:34.357Z,92.56
2022-12-13T05:25:02.400Z,92.21
2022-12-13T05:27:31.241Z,92.10
2022-12-13T05:30:03.834Z,92.27
2022-12-13T05:32:43.845Z,92.39
2022-12-13T05:35:21.982Z,92.41
2022-12-13T05:37:53.421Z,92.33
2022-12-13T05:40:24.701Z,92.61
2022-12-13T05:43:01.648Z,92.87
2022-12-13T05:45:31.912Z,92.32
2022-12-13T05:48:00.620Z,92.75
2022-12-13T05:50:29.058Z,92.25
2022-12-13T05:52:57.090Z,92.43
2022-12-13T05:55:25.177Z,92.79
2022-12-13T05:57:53.657Z,92.36
2022-12-13T06:00:31.202Z,92.71
2022-12-13T06:03:01.494Z,92.58
2022-12-13T06:05:31.370Z,92.93
2022-12-13T06:08:00.647Z,92.96
2022-12-13T06:10:34.627Z,92.73
2022-12-13T06:13:21.219Z,92.64
2022-12-13T06:16:01.005Z,92.81
2022-12-13T06:18:32.814Z,92.78
2022-12-13T06:21:04.037Z,93.15
2022-12-13T06:23:34.029Z,92.80
2022-12-13T06:26:07.380Z,92.86
2022-12-13T06:28:37.055Z,92.87
2022-12-13T06:31:05.901Z,93.08
2022-12-13T06:33:39.164Z,92.86
2022-12-13T06:36:07.994Z,92.87
2022-12-13T06:38:43.429Z,92.81
2022-12-13T06:41:15.324Z,93.30
2022-12-13T06:43:47.914Z,93.19
2022-12-13T06:46:16.901Z,92.95
2022-12-13T06:48:45.667Z,93.25
2022-12-13T06:51:22.858Z,93.33
2022-12-13T06:53:51.612Z,93.17
2022-12-13T06:56:19.836Z,93.39
2022-12-13T06:58:48.221Z,93.40
2022-12-13T07:01:24.561Z,93.31
2022-12-13T07:03:56.946Z,93.72
2022-12-13T07:06:26.724Z,93.81
2022-12-13T07:08:57.581Z,93.77
2022-12-13T07:11:28.715Z,93.95
2022-12-13T07:13:57.791Z,93.73
2022-12-13T07:16:30.951Z,93.90
2022-12-13T07:19:01.717Z,94.32
2022-12-13T07:21:31.362Z,94.15
2022-12-13T07:23:59.728Z,94.15
2022-12-13T07:26:28.148Z,94.17
2022-12-13T07:28:57.319Z,94.17
2022-12-13T07:31:26.648Z,94.39
2022-12-13T07:33:54.841Z,94.83
2022-12-13T07:36:24.171Z,94.77
2022-12-13T07:38:55.180Z,94.79
2022-12-13T07:41:25.081Z,94.57
2022-12-13T07:43:55.660Z,94.35
2022-12-13T07:46:32.900Z,94.25
2022-12-13T07:49:03.342Z,94.25
2022-12-13T07:51:36.178Z,94.33
2022-12-13T07:54:06.318Z,94.33
2022-12-13T07:56:36.487Z,94.29
2022-12-13T07:59:04.716Z,94.29
2022-12-13T08:01:37.085Z,94.44
2022-12-13T08:04:06.256Z,94.08
2022-12-13T08:06:38.456Z,94.25
2022-12-13T08:09:07.000Z,94.19
2022-12-13T08:11:35.156Z,94.43
2022-12-13T08:14:03.397Z,94.48
2022-12-13T08:16:31.739Z,94.61
2022-12-13T08:19:04.492Z,94.56
2022-12-13T08:21:58.778Z,94.23
2022-12-13T08:24:31.906Z,94.53
2022-12-13T08:27:04.788Z,94.14
2022-12-13T08:29:35.925Z,94.05
2022-12-13T08:32:11.975Z,94.26
2022-12-13T08:34:41.579Z,94.24
2022-12-13T08:37:09.983Z,93.93
2022-12-13T08:39:39.799Z,93.90
2022-12-13T08:42:15.921Z,94.18
2022-12-13T08:44:50.413Z,94.05
2022-12-13T08:47:23.500Z,94.09
2022-12-13T08:50:04.147Z,94.20
2022-12-13T08:52:39.227Z,94.22
2022-12-13T08:55:11.787Z,94.18
2022-12-13T08:57:41.467Z,93.87
2022-12-13T09:00:14.308Z,93.82
2022-12-13T09:02:43.077Z,93.87
2022-12-13T09:05:13.260Z,94.00
2022-12-13T09:08:23.357Z,93.69
2022-12-13T09:11:00.088Z,94.28
2022-12-13T09:13:32.980Z,93.99
2022-12-13T09:16:13.984Z,93.72
2022-12-13T09:18:42.820Z,93.74
2022-12-13T09:21:14.099Z,93.81
2022-12-13T09:23:51.235Z,93.76
2022-12-13T09:26:25.434Z,93.78
2022-12-13T09:28:53.934Z,93.88
2022-12-13T09:31:22.785Z,93.62
2022-12-13T09:33:51.352Z,93.77
2022-12-13T09:36:21.388Z,93.82
2022-12-13T09:38:52.428Z,94.15
2022-12-13T09:41:28.900Z,93.91
2022-12-13T09:44:06.129Z,94.00
2022-12-13T09:47:01.103Z,93.94
2022-12-13T09:49:38.458Z,93.34
2022-12-13T09:52:21.958Z,93.40
2022-12-13T09:54:55.561Z,93.44
2022-12-13T09:57:33.903Z,93.30
2022-12-13T10:00:07.306Z,93.11
2022-12-13T10:02:45.724Z,93.02
2022-12-13T10:05:39.103Z,92.89
2022-12-13T10:08:21.165Z,92.86
2022-12-13T10:10:53.284Z,93.13
2022-12-13T10:13:28.268Z,92.56
2022-12-13T10:16:38.730Z,92.68
2022-12-13T10:19:30.079Z,92.58
2022-12-13T10:22:02.539Z,92.56
2022-12-13T10:24:48.423Z,92.58
2022-12-13T10:27:27.417Z,92.75
2022-12-13T10:30:02.954Z,92.81
2022-12-13T10:32:38.039Z,92.96
2022-12-13T10:35:36.933Z,92.61
2022-12-13T10:38:08.959Z,92.91
2022-12-13T10:40:40.827Z,93.03
2022-12-13T10:43:23.688Z,92.84
2022-12-13T10:45:55.962Z,93.04
2022-12-13T10:48:38.624Z,92.93
2022-12-13T10:51:13.281Z,93.34
2022-12-13T10:53:53.737Z,93.38
2022-12-13T10:56:33.244Z,93.52
2022-12-13T10:59:35.387Z,93.87
2022-12-13T11:02:30.347Z,93.80
2022-12-13T11:05:16.039Z,93.84
2022-12-13T11:07:53.843Z,93.96
2022-12-13T11:10:31.110Z,94.14
2022-12-13T11:13:05.347Z,94.52
2022-12-13T11:15:37.911Z,94.25
2022-12-13T11:18:19.455Z,94.42
2022-12-13T11:20:59.510Z,94.51
2022-12-13T11:23:31.928Z,94.60
2022-12-13T11:26:06.509Z,94.20
2022-12-13T11:29:09.286Z,94.73
2022-12-13T11:32:11.929Z,94.32
2022-12-13T11:34:53.622Z,94.49
2022-12-13T11:37:53.819Z,94.90
2022-12-13T11:40:30.970Z,94.49
2022-12-13T11:43:06.151Z,94.64
2022-12-13T11:45:41.348Z,94.92
2022-12-13T11:48:09.631Z,94.76
2022-12-13T11:50:45.115Z,94.76
2022-12-13T11:53:19.259Z,94.17
2022-12-13T11:56:01.125Z,94.52
2022-12-13T12:01:38.207Z,94.53
2022-12-13T12:04:18.499Z,94.32
2022-12-13T12:06:54.539Z,94.52
2022-12-13T12:09:27.503Z,94.14
2022-12-13T12:12:25.217Z,94.23
2022-12-13T12:15:05.286Z,94.29
2022-12-13T12:17:45.575Z,94.38
2022-12-13T12:20:23.884Z,94.45
2022-12-13T12:23:11.445Z,94.44
2022-12-13T12:25:47.351Z,94.39
2022-12-13T12:28:44.252Z,94.01
2022-12-13T12:31:50.376Z,94.01
2022-12-13T12:34:43.823Z,93.94
2022-12-13T12:37:28.621Z,93.85
2022-12-13T12:40:20.246Z,94.07
2022-12-13T12:43:14.199Z,94.07
2022-12-13T12:46:08.670Z,93.82
2022-12-13T12:49:00.673Z,93.84
2022-12-13T12:51:53.087Z,93.76
2022-12-13T12:54:36.094Z,93.81
2022-12-13T12:57:26.696Z,93.28
2022-12-13T13:00:16.876Z,93.47
2022-12-13T13:03:20.507Z,93.44
2022-12-13T13:06:04.826Z,93.54
2022-12-13T13:08:46.730Z,93.49
2022-12-13T13:11:24.235Z,93.32
2022-12-13T13:14:04.480Z,93.36
2022-12-13T13:16:42.259Z,93.43
2022-12-13T13:19:13.861Z,93.29
2022-12-13T13:21:49.638Z,93.16
2022-12-13T13:24:19.960Z,93.27
2022-12-13T13:27:10.595Z,93.44
2022-12-13T13:29:44.071Z,93.11
2022-12-13T13:32:28.772Z,93.21
2022-12-13T13:35:42.858Z,93.22
2022-12-13T13:38:16.818Z,93.37
2022-12-13T13:40:45.075Z,93.28
2022-12-13T13:43:17.144Z,93.86
2022-12-13T13:45:51.533Z,93.71
2022-12-13T13:48:47.630Z,93.84
2022-12-13T13:52:00.992Z,93.76
2022-12-13T13:54:48.829Z,93.61
2022-12-13T14:01:08.831Z,94.23
2022-12-13T14:04:11.645Z,93.91
2022-12-13T14:07:22.045Z,93.70
2022-12-13T14:10:05.745Z,94.05
2022-12-13T14:12:56.147Z,94.17
2022-12-13T14:16:12.145Z,94.01
2022-12-13T14:18:54.076Z,94.52
2022-12-13T14:21:37.998Z,94.70
2022-12-13T14:24:25.413Z,94.54
2022-12-13T14:27:09.296Z,94.80
2022-12-13T14:29:48.865Z,94.63
2022-12-13T14:32:30.246Z,94.81
2022-12-13T14:35:25.389Z,94.83
2022-12-13T14:38:06.039Z,95.04
2022-12-13T14:40:38.059Z,95.10
2022-12-13T14:43:23.810Z,94.96
2022-12-13T14:45:58.319Z,95.11
2022-12-13T14:48:30.115Z,95.04
2022-12-13T14:50:59.905Z,95.11
2022-12-13T14:53:38.361Z,95.10
2022-12-13T14:56:27.327Z,95.24
2022-12-13T14:59:03.722Z,95.47
2022-12-13T15:01:36.627Z,95.21
2022-12-13T15:04:29.826Z,95.37
2022-12-13T15:07:14.289Z,95.55
2022-12-13T15:09:45.755Z,95.23
2022-12-13T15:12:25.333Z,95.56
2022-12-13T15:15:16.527Z,95.83
2022-12-13T15:17:45.711Z,95.76
2022-12-13T15:20:27.919Z,95.54
2022-12-13T15:23:01.551Z,95.60
2022-12-13T15:25:34.061Z,95.99
2022-12-13T15:28:02.859Z,95.83
2022-12-13T15:30:35.105Z,95.77
2022-12-13T15:33:36.818Z,95.89
2022-12-13T15:36:14.205Z,96.40
2022-12-13T15:38:51.461Z,96.18
2022-12-13T15:41:23.053Z,96.40
2022-12-13T15:43:54.982Z,96.71
2022-12-13T15:46:37.843Z,96.49
2022-12-13T15:49:27.138Z,96.76
2022-12-13T15:52:04.973Z,96.46
2022-12-13T15:54:33.671Z,96.84
2022-12-13T15:57:03.152Z,96.54
2022-12-13T15:59:36.117Z,96.49
2022-12-13T16:02:13.209Z,96.75
2022-12-13T16:04:41.574Z,97.12
2022-12-13T16:07:36.145Z,97.13
2022-12-13T16:10:06.775Z,97.16
2022-12-13T16:12:51.299Z,97.17
2022-12-13T16:15:29.971Z,97.18
2022-12-13T16:18:13.045Z,97.25
2022-12-13T16:20:44.156Z,97.51
2022-12-13T16:23:21.165Z,97.38
2022-12-13T16:25:55.822Z,97.61
2022-12-13T16:28:26.168Z,97.55
2022-12-13T16:31:02.564Z,97.67
2022-12-13T16:33:30.975Z,97.45
2022-12-13T16:35:59.341Z,97.50
2022-12-13T16:38:30.842Z,97.71
2022-12-13T16:41:08.412Z,97.88
2022-12-13T16:43:44.992Z,97.87
2022-12-13T16:47:13.152Z,97.72
2022-12-13T16:49:09.188Z,97.72
2022-12-13T16:51:37.633Z,97.80
2022-12-13T16:54:05.951Z,97.65
2022-12-13T16:56:34.504Z,97.96
2022-12-13T16:59:02.963Z,97.80
2022-12-13T17:01:34.094Z,98.05
2022-12-13T17:04:10.374Z,97.89
2022-12-13T17:06:41.247Z,97.89
2022-12-13T17:09:10.390Z,97.75
2022-12-13T17:11:39.398Z,98.29
2022-12-13T17:14:09.192Z,98.28
2022-12-13T17:16:42.176Z,98.10
2022-12-13T17:19:15.724Z,98.58
2022-12-13T17:21:44.089Z,98.29
2022-12-13T17:24:12.956Z,98.36
2022-12-13T17:26:54.041Z,98.20
2022-12-13T17:29:34.292Z,98.20
2022-12-13T17:32:03.179Z,98.09
2022-12-13T17:34:31.861Z,98.34
2022-12-13T17:37:01.548Z,98.39
2022-12-13T17:39:33.191Z,98.66
2022-12-13T17:42:01.947Z,98.66
2022-12-13T17:44:30.374Z,98.39
2022-12-13T17:46:58.676Z,98.61
2022-12-13T17:49:27.124Z,98.60
2022-12-13T17:51:55.563Z,98.87
2022-12-13T17:54:25.809Z,98.83
2022-12-13T17:56:54.693Z,98.63
2022-12-13T17:59:23.867Z,98.48
2022-12-13T18:01:52.245Z,98.53
2022-12-13T18:04:21.581Z,98.63
2022-12-13T18:06:52.478Z,98.54
2022-12-13T18:09:20.848Z,98.76
2022-12-13T18:11:49.260Z,98.78
2022-12-13T18:14:17.550Z,98.89
2022-12-13T18:16:47.107Z,98.78
2022-12-13T18:19:15.735Z,98.78
2022-12-13T18:21:44.237Z,98.60
2022-12-13T18:24:12.802Z,98.45
2022-12-13T18:26:41.567Z,98.58
2022-12-13T18:29:10.591Z,98.98
2022-12-13T18:31:40.179Z,98.67
2022-12-13T18:34:09.308Z,98.78
2022-12-13T18:36:39.942Z,98.77
2022-12-13T18:39:08.913Z,98.75
2022-12-13T18:41:37.416Z,98.67
2022-12-13T18:44:08.424Z,98.62
2022-12-13T18:46:39.274Z,98.49
2022-12-13T18:49:10.546Z,98.74
2022-12-13T18:51:39.120Z,98.57
2022-12-13T18:54:08.107Z,98.82
2022-12-13T18:56:36.619Z,98.78
2022-12-13T18:59:05.916Z,98.69
2022-12-13T19:01:36.168Z,98.40
2022-12-13T19:04:05.359Z,98.79
2022-12-13T19:06:33.996Z,98.65
2022-12-13T19:09:02.749Z,98.51
2022-12-13T19:11:31.734Z,98.68
2022-12-13T19:14:00.420Z,98.70
2022-12-13T19:16:29.765Z,98.76
2022-12-13T19:18:58.406Z,98.62
2022-12-13T19:21:27.753Z,98.38
2022-12-13T19:23:58.812Z,98.61
2022-12-13T19:26:29.521Z,98.47
2022-12-13T19:29:00.603Z,98.45
2022-12-13T19:31:32.154Z,98.12
2022-12-13T19:34:02.901Z,98.52
2022-12-13T19:36:32.900Z,98.26
2022-12-13T19:39:01.601Z,98.76
2022-12-13T19:41:32.481Z,98.29
2022-12-13T19:44:05.198Z,98.46
2022-12-13T19:46:36.661Z,98.47
2022-12-13T19:49:05.817Z,98.29
2022-12-13T19:51:39.245Z,98.67
2022-12-13T19:54:08.129Z,98.49
2022-12-13T19:56:36.923Z,98.20
2022-12-13T19:59:05.977Z,98.43
2022-12-13T20:01:34.631Z,98.56
2022-12-13T20:04:03.836Z,98.41
2022-12-13T20:06:33.722Z,98.72
2022-12-13T20:09:02.680Z,98.35
2022-12-13T20:11:32.371Z,98.45
2022-12-13T20:14:01.185Z,98.39
2022-12-13T20:16:32.225Z,98.04
2022-12-13T20:19:01.517Z,98.45
2022-12-13T20:21:30.834Z,98.40
2022-12-13T20:23:59.746Z,98.13
2022-12-13T20:26:30.424Z,98.06
2022-12-13T20:28:59.989Z,98.44
2022-12-13T20:31:34.423Z,98.06
2022-12-13T20:34:07.363Z,98.37
2022-12-13T20:36:37.639Z,98.01
2022-12-13T20:39:13.183Z,98.56
2022-12-13T20:41:43.382Z,98.55
2022-12-13T20:44:14.154Z,98.23
2022-12-13T20:46:44.140Z,98.17
2022-12-13T20:49:15.847Z,98.18
2022-12-13T20:51:45.562Z,97.80
2022-12-13T20:54:15.099Z,98.07
2022-12-13T20:56:44.721Z,97.93
2022-12-13T20:59:14.819Z,97.76
2022-12-13T21:01:48.890Z,98.05
2022-12-13T21:04:18.661Z,98.41
2022-12-13T21:06:48.032Z,97.86
2022-12-13T21:09:18.028Z,97.88
2022-12-13T21:11:49.284Z,97.87
2022-12-13T21:14:23.025Z,97.78
2022-12-13T21:16:54.236Z,97.59
2022-12-13T21:19:38.886Z,98.00
2022-12-13T21:22:09.030Z,97.85
2022-12-13T21:24:39.029Z,97.84
2022-12-13T21:27:08.384Z,97.57
2022-12-13T21:29:37.649Z,97.53
2022-12-13T21:32:06.619Z,97.06
2022-12-13T21:34:35.479Z,97.33
2022-12-13T21:37:05.639Z,96.96
2022-12-13T21:39:34.374Z,96.87
2022-12-13T21:42:03.125Z,97.18
2022-12-13T21:44:31.596Z,97.15
2022-12-13T21:47:15.843Z,96.93
2022-12-13T21:49:48.700Z,96.93
2022-12-13T21:52:18.042Z,96.89
2022-12-13T21:54:46.685Z,96.84
2022-12-13T21:57:53.943Z,97.12
2022-12-13T22:00:22.243Z,97.13
2022-12-13T22:02:50.972Z,96.82
2022-12-13T22:05:19.443Z,97.20
2022-12-13T22:07:48.148Z,97.28
2022-12-13T22:10:16.632Z,97.08
2022-12-13T22:12:44.850Z,97.37
2022-12-13T22:15:16.998Z,97.52
2022-12-13T22:17:45.311Z,97.54
2022-12-13T22:20:15.689Z,97.40
2022-12-13T22:22:45.637Z,97.12
2022-12-13T22:25:14.106Z,97.54
2022-12-13T22:27:42.475Z,97.59
2022-12-13T22:30:11.432Z,97.87
2022-12-13T22:32:39.745Z,97.79
2022-12-13T22:35:08.748Z,98.06
2022-12-13T22:37:37.024Z,97.93
2022-12-13T22:40:06.809Z,97.91
2022-12-13T22:42:35.449Z,98.07
2022-12-13T22:45:06.266Z,97.82
2022-12-13T22:47:35.020Z,98.10
2022-12-13T22:50:03.254Z,98.04
2022-12-13T22:52:33.947Z,97.52
2022-12-13T22:55:02.638Z,97.46
2022-12-13T22:57:32.692Z,97.80
2022-12-13T23:00:00.954Z,97.10
2022-12-13T23:02:29.656Z,97.00
2022-12-13T23:04:58.159Z,97.19
2022-12-13T23:07:26.284Z,97.21
2022-12-13T23:09:54.906Z,97.07
2022-12-13T23:17:04.182Z,97.55
2022-12-13T23:20:02.562Z,97.91
2022-12-13T23:23:17.574Z,98.08
2022-12-13T23:26:37.757Z,98.06
2022-12-13T23:29:52.341Z,98.19
2022-12-13T23:33:07.994Z,98.77
2022-12-13T23:36:15.479Z,98.81
2022-12-13T23:39:46.140Z,98.73
2022-12-13T23:55:16.261Z,98.32
2022-12-13T23:58:54.268Z,98.08
